Salo, Minnesota
Current Conditions -  °F | °C
As of 5:05 PM on Saturday 25 Oct 2014 (Local Time) from KHZX Reporting Station
Clear Clear  
Wind Chill: 57°   Ceiling: Unl
Heat Index: 57°   Visibility: 10mi
Dew Point: 23°   Wind: 15mph
Humidity: 27%   Direction: 310°NW
Pressure: 30.01"   Gusts: 21mph
Location:  46.7232°N, 93.3159°W
Report Text: KHZX 252205Z AUTO 31013G18KT 10SM CLR 14/M05 A3001 RMK AO2
Loading
Personal Weather Stations






























Interactive Weather Map
Tropical Storm Tracking
New forecast layout! Learn more

10-Day Weather Forecast

Advertisements
Track Severe Weather on mobile